Time;durP1;ratioP1;P1;durP2;ratioP2;P2;SDS_P1;SDS_P2;PMS_P1;PMS_P2;Temp;Humidity;BMP_temperature;BMP_pressure;BME280_temperature;BME280_humidity;BME280_pressure;Samples;Min_cycle;Max_cycle;Signal;HPM_P1;HPM_P2
2022/04/24 00:01:08;;;;;;;5.23;4.73;;;11.10;1.00;;;;;;5066531;28;20316;-59
2022/04/24 00:03:35;;;;;;;5.10;4.60;;;11.10;1.00;;;;;;5066235;28;20329;-60
2022/04/24 00:06:02;;;;;;;6.33;5.50;;;11.00;1.00;;;;;;5066437;28;20202;-60
2022/04/24 00:08:30;;;;;;;5.63;5.07;;;11.00;1.00;;;;;;5049006;28;20268;-60
2022/04/24 00:10:57;;;;;;;6.63;4.90;;;11.00;1.00;;;;;;5067170;28;20294;-60
2022/04/24 00:13:24;;;;;;;5.30;4.80;;;10.90;1.00;;;;;;5066510;28;20980;-59
2022/04/24 00:15:51;;;;;;;5.87;5.27;;;10.90;1.00;;;;;;5034708;28;20886;-59
2022/04/24 00:18:18;;;;;;;6.63;4.93;;;10.90;1.00;;;;;;5067831;28;20858;-59
2022/04/24 00:20:45;;;;;;;5.73;5.13;;;10.80;1.00;;;;;;5048867;28;20214;-59
2022/04/24 00:23:12;;;;;;;5.73;5.23;;;10.80;1.00;;;;;;5065677;28;20252;-60
2022/04/24 00:25:39;;;;;;;5.87;5.03;;;10.80;1.00;;;;;;5068079;28;20270;-60
2022/04/24 00:28:06;;;;;;;5.40;4.90;;;10.80;1.00;;;;;;5065202;28;20198;-59
2022/04/24 00:30:33;;;;;;;5.90;5.07;;;10.70;1.00;;;;;;5043148;28;20657;-59
2022/04/24 00:33:00;;;;;;;6.73;5.47;;;10.70;1.00;;;;;;5066804;28;20248;-59
2022/04/24 00:35:27;;;;;;;5.73;5.13;;;10.60;1.00;;;;;;5067148;28;20191;-58
2022/04/24 00:37:54;;;;;;;6.37;4.83;;;10.60;1.00;;;;;;5066430;28;20284;-59
2022/04/24 00:40:21;;;;;;;6.17;5.20;;;10.50;1.00;;;;;;5066716;28;20242;-58
2022/04/24 00:42:48;;;;;;;5.67;5.17;;;10.50;1.00;;;;;;5065351;28;20195;-58
2022/04/24 00:45:15;;;;;;;5.53;5.03;;;10.50;1.00;;;;;;5050264;28;20274;-60
2022/04/24 00:47:46;;;;;;;7.13;5.23;;;10.50;1.00;;;;;;5049000;28;20606;-59
2022/04/24 00:50:13;;;;;;;5.43;4.93;;;10.40;1.00;;;;;;5064307;28;20187;-59
2022/04/24 00:52:41;;;;;;;6.87;5.47;;;10.30;1.00;;;;;;5066243;28;20717;-59
2022/04/24 00:55:08;;;;;;;5.53;5.03;;;10.20;1.00;;;;;;5064917;28;20717;-60
2022/04/24 00:57:35;;;;;;;5.73;5.17;;;10.20;1.00;;;;;;5034709;28;20191;-59
2022/04/24 01:00:03;;;;;;;9.83;5.47;;;10.20;1.00;;;;;;5049143;28;20230;-59
2022/04/24 01:02:30;;;;;;;5.57;5.03;;;10.20;1.00;;;;;;5050085;28;20665;-59
2022/04/24 01:04:58;;;;;;;5.90;5.40;;;10.10;1.00;;;;;;5064537;28;20242;-59
2022/04/24 01:07:25;;;;;;;6.47;5.20;;;10.10;1.00;;;;;;5048259;28;20187;-59
2022/04/24 01:09:52;;;;;;;6.40;5.80;;;10.10;1.00;;;;;;5065529;28;20222;-59
2022/04/24 01:12:18;;;;;;;6.60;5.67;;;10.00;1.00;;;;;;5047199;28;20219;-60
2022/04/24 01:14:45;;;;;;;5.70;5.07;;;9.90;1.00;;;;;;5067257;28;20207;-59
2022/04/24 01:17:15;;;;;;;7.97;5.53;;;9.90;4.90;;;;;;5067395;28;20262;-59
2022/04/24 01:19:45;;;;;;;6.03;5.43;;;9.80;15.20;;;;;;5032165;28;20622;-60
2022/04/24 01:22:12;;;;;;;6.23;5.63;;;9.80;20.50;;;;;;5049738;28;20233;-59
2022/04/24 01:24:38;;;;;;;7.70;6.00;;;9.80;18.20;;;;;;5065697;28;20211;-58
2022/04/24 01:27:06;;;;;;;7.97;5.90;;;9.90;9.60;;;;;;5064328;28;20187;-58
2022/04/24 01:29:33;;;;;;;6.93;6.07;;;9.80;15.20;;;;;;5067431;28;20199;-59
2022/04/24 01:32:00;;;;;;;6.50;5.80;;;9.80;33.40;;;;;;5065711;28;20195;-58
2022/04/24 01:34:30;;;;;;;7.60;5.87;;;9.80;35.40;;;;;;5065018;28;20895;-58
2022/04/24 01:36:57;;;;;;;6.17;5.57;;;9.80;47.70;;;;;;5065420;28;20234;-58
2022/04/24 01:39:24;;;;;;;6.33;5.73;;;9.80;47.60;;;;;;5059556;28;20302;-58
2022/04/24 01:41:51;;;;;;;7.03;6.27;;;9.70;55.50;;;;;;5070417;28;20227;-59
2022/04/24 01:44:18;;;;;;;7.70;5.90;;;9.80;41.30;;;;;;5069815;28;20268;-58
2022/04/24 01:46:45;;;;;;;6.10;5.50;;;9.80;45.70;;;;;;5069761;28;20707;-59
2022/04/24 01:49:13;;;;;;;7.17;6.20;;;9.70;66.90;;;;;;5069460;28;20213;-58
2022/04/24 01:51:40;;;;;;;7.37;6.20;;;9.70;83.10;;;;;;5052422;28;20218;-59
2022/04/24 01:54:07;;;;;;;7.30;5.93;;;9.70;92.80;;;;;;5062867;28;20206;-59
2022/04/24 01:56:34;;;;;;;6.60;6.00;;;9.60;98.10;;;;;;5069051;28;20206;-60
2022/04/24 01:59:01;;;;;;;7.57;5.73;;;9.50;99.90;;;;;;5067295;28;20802;-58
2022/04/24 02:01:27;;;;;;;7.60;6.13;;;9.40;99.90;;;;;;5069075;28;20253;-59
2022/04/24 02:03:55;;;;;;;9.80;6.67;;;9.40;99.90;;;;;;5058308;28;20222;-59
2022/04/24 02:06:22;;;;;;;9.50;6.53;;;9.30;99.90;;;;;;5069282;28;20260;-58
2022/04/24 02:08:49;;;;;;;7.30;6.60;;;9.30;99.90;;;;;;5066865;28;20204;-57
2022/04/24 02:11:16;;;;;;;7.87;7.00;;;9.20;99.90;;;;;;5052923;28;20230;-58
2022/04/24 02:13:43;;;;;;;8.00;7.20;;;9.20;99.90;;;;;;5067216;28;20199;-58
2022/04/24 02:16:10;;;;;;;7.37;6.40;;;9.20;99.90;;;;;;5052192;28;20203;-58
2022/04/24 02:18:37;;;;;;;7.80;7.00;;;9.20;99.90;;;;;;5068657;28;20680;-58
2022/04/24 02:21:04;;;;;;;7.20;6.50;;;9.10;99.90;;;;;;5052393;28;20203;-58
2022/04/24 02:23:32;;;;;;;8.40;7.07;;;9.10;99.90;;;;;;5069433;28;20210;-58
2022/04/24 02:25:59;;;;;;;7.60;6.80;;;9.10;99.90;;;;;;5053746;28;20203;-58
2022/04/24 02:28:26;;;;;;;8.20;7.40;;;9.10;99.90;;;;;;5068355;28;20198;-59
2022/04/24 02:30:53;;;;;;;7.93;7.13;;;9.10;99.90;;;;;;5051435;28;20253;-58
2022/04/24 02:33:20;;;;;;;7.80;7.10;;;9.10;99.90;;;;;;5068238;28;20206;-58
2022/04/24 02:35:47;;;;;;;9.17;7.57;;;9.00;99.90;;;;;;5052790;28;20686;-58
2022/04/24 02:38:14;;;;;;;10.87;7.63;;;9.00;99.90;;;;;;5067447;28;20219;-58
2022/04/24 02:40:41;;;;;;;7.83;7.03;;;8.90;99.90;;;;;;5035089;28;20759;-58
2022/04/24 02:43:08;;;;;;;9.00;7.30;;;8.90;99.90;;;;;;5069022;28;20203;-58
2022/04/24 02:45:35;;;;;;;9.90;7.47;;;8.90;99.90;;;;;;5069143;28;20248;-59
2022/04/24 02:48:03;;;;;;;9.80;7.87;;;8.90;99.90;;;;;;5069009;28;20410;-58
2022/04/24 02:50:30;;;;;;;11.17;8.77;;;8.80;99.90;;;;;;5065254;28;20191;-58
2022/04/24 02:52:57;;;;;;;9.27;8.17;;;8.80;99.90;;;;;;5067073;28;20210;-58
2022/04/24 02:55:25;;;;;;;11.67;7.63;;;8.70;1.00;;;;;;5048683;28;20280;-59
2022/04/24 02:57:53;;;;;;;9.70;7.70;;;8.80;1.00;;;;;;5051537;28;20762;-59
2022/04/24 03:00:24;;;;;;;12.43;8.40;;;8.70;1.00;;;;;;5032726;28;20301;-59
2022/04/24 03:02:53;;;;;;;10.43;8.20;;;8.60;1.00;;;;;;5068383;28;20681;-59
2022/04/24 03:05:24;;;;;;;9.00;8.00;;;8.60;1.00;;;;;;5068699;28;20367;-59
2022/04/24 03:07:51;;;;;;;12.77;7.93;;;8.50;1.00;;;;;;5068247;28;20211;-59
2022/04/24 03:10:19;;;;;;;9.07;7.30;;;8.50;1.00;;;;;;5067938;28;20241;-58
2022/04/24 03:12:47;;;;;;;8.90;8.00;;;8.50;1.00;;;;;;5051768;28;20187;-59
2022/04/24 03:15:14;;;;;;;9.77;7.80;;;8.50;1.00;;;;;;5048268;28;20293;-58
2022/04/24 03:17:42;;;;;;;11.40;8.20;;;8.40;1.00;;;;;;5068470;28;20213;-58
2022/04/24 03:20:12;;;;;;;10.70;7.90;;;8.40;1.00;;;;;;5068698;28;20201;-59
2022/04/24 03:22:39;;;;;;;9.00;7.67;;;8.30;1.00;;;;;;5052661;28;20260;-60
2022/04/24 03:25:09;;;;;;;9.47;8.50;;;8.30;1.00;;;;;;5069608;28;20233;-59
2022/04/24 03:27:36;;;;;;;8.33;7.50;;;8.30;1.00;;;;;;5052094;28;20223;-59
2022/04/24 03:30:06;;;;;;;8.33;7.33;;;8.30;1.00;;;;;;5034919;28;20583;-59
2022/04/24 03:32:33;;;;;;;10.63;8.00;;;8.30;1.00;;;;;;5069929;28;20187;-59
2022/04/24 03:35:01;;;;;;;8.73;7.63;;;8.40;1.00;;;;;;5067436;28;20199;-59
2022/04/24 03:37:28;;;;;;;8.80;7.00;;;8.20;1.00;;;;;;5033906;28;20235;-59
2022/04/24 03:39:56;;;;;;;9.97;8.50;;;8.20;1.00;;;;;;5069198;28;20231;-58
2022/04/24 03:42:25;;;;;;;9.37;8.20;;;8.30;1.00;;;;;;5068837;28;20209;-58
2022/04/24 03:44:56;;;;;;;11.03;9.20;;;8.40;1.00;;;;;;5032557;28;20288;-59
2022/04/24 03:47:24;;;;;;;12.07;8.67;;;8.30;1.00;;;;;;5067702;28;20308;-59
2022/04/24 03:49:51;;;;;;;9.40;8.43;;;8.30;1.00;;;;;;5049513;28;20225;-59
2022/04/24 03:52:18;;;;;;;9.23;8.33;;;8.20;1.00;;;;;;5057200;28;20210;-58
2022/04/24 03:54:45;;;;;;;9.47;8.23;;;8.30;1.00;;;;;;5029569;28;20248;-59
2022/04/24 03:57:13;;;;;;;10.43;7.50;;;8.30;1.00;;;;;;5068975;28;20240;-59
2022/04/24 03:59:40;;;;;;;9.10;8.07;;;8.20;1.00;;;;;;5033838;28;21050;-59
2022/04/24 04:02:07;;;;;;;8.03;7.20;;;8.20;1.00;;;;;;5064301;28;20196;-58
2022/04/24 04:04:34;;;;;;;10.23;7.53;;;8.20;1.00;;;;;;5066850;28;20247;-58
2022/04/24 04:07:02;;;;;;;11.17;7.53;;;8.20;1.00;;;;;;5068041;28;20339;-58
2022/04/24 04:09:29;;;;;;;8.00;7.20;;;8.20;1.00;;;;;;5064819;28;20218;-58
2022/04/24 04:11:57;;;;;;;8.60;7.70;;;8.20;1.00;;;;;;5049928;28;20219;-58
2022/04/24 04:14:24;;;;;;;8.33;7.50;;;8.20;1.00;;;;;;5047830;28;20237;-59
2022/04/24 04:16:53;;;;;;;8.90;7.77;;;8.10;1.00;;;;;;5067316;28;20202;-58
2022/04/24 04:19:20;;;;;;;8.17;7.23;;;8.10;1.00;;;;;;5054315;28;20195;-58
2022/04/24 04:21:47;;;;;;;8.27;7.20;;;8.10;1.00;;;;;;5067032;28;20282;-59
2022/04/24 04:24:15;;;;;;;8.13;7.33;;;8.10;1.00;;;;;;5065921;28;20301;-58
2022/04/24 04:26:42;;;;;;;9.23;7.43;;;8.00;1.00;;;;;;5065645;28;20183;-58
2022/04/24 04:29:09;;;;;;;8.23;7.10;;;8.00;1.00;;;;;;5066335;28;20244;-59
2022/04/24 04:31:36;;;;;;;12.33;7.57;;;8.00;1.00;;;;;;5069343;28;20191;-58
2022/04/24 04:34:03;;;;;;;9.27;7.10;;;8.00;1.00;;;;;;5066494;28;20269;-59
2022/04/24 04:36:30;;;;;;;8.33;6.53;;;8.10;1.00;;;;;;5054496;28;20199;-58
2022/04/24 04:38:57;;;;;;;9.57;6.80;;;8.10;1.00;;;;;;5054745;28;20258;-58
2022/04/24 04:41:24;;;;;;;8.33;7.07;;;8.20;1.00;;;;;;5067424;28;20233;-58
2022/04/24 04:43:51;;;;;;;6.97;6.27;;;8.20;1.00;;;;;;5066381;28;20203;-58
2022/04/24 04:46:20;;;;;;;9.77;6.83;;;8.20;1.00;;;;;;5049556;28;20540;-59
2022/04/24 04:48:47;;;;;;;8.23;6.67;;;8.20;1.00;;;;;;5064961;28;20199;-59
2022/04/24 04:51:14;;;;;;;7.60;6.90;;;8.20;1.00;;;;;;5066683;28;20191;-58
2022/04/24 04:53:41;;;;;;;7.30;6.47;;;8.20;1.00;;;;;;5048267;28;20193;-58
2022/04/24 04:56:08;;;;;;;8.63;6.57;;;8.30;1.00;;;;;;5067549;28;20294;-60
2022/04/24 04:58:35;;;;;;;11.37;6.43;;;8.30;1.00;;;;;;5049154;28;20195;-59
2022/04/24 05:01:02;;;;;;;7.70;6.90;;;8.40;1.00;;;;;;5068127;28;20195;-59
2022/04/24 05:03:31;;;;;;;9.30;7.10;;;8.40;1.00;;;;;;5066428;28;20210;-59
2022/04/24 05:05:58;;;;;;;10.47;6.70;;;8.40;1.00;;;;;;5067347;28;20210;-59
2022/04/24 05:08:25;;;;;;;7.67;6.67;;;8.50;1.00;;;;;;5066685;28;20198;-59
2022/04/24 05:10:52;;;;;;;7.17;6.40;;;8.50;1.00;;;;;;5065852;28;20610;-59
2022/04/24 05:13:20;;;;;;;7.60;6.80;;;8.50;1.00;;;;;;5070684;28;20190;-59
2022/04/24 05:15:47;;;;;;;8.07;6.40;;;8.60;1.00;;;;;;5072976;28;20230;-59
2022/04/24 05:18:14;;;;;;;8.13;6.10;;;8.60;1.00;;;;;;5053403;28;20206;-59
2022/04/24 05:20:43;;;;;;;14.43;6.97;;;8.60;1.00;;;;;;5071300;28;20249;-59
2022/04/24 05:23:12;;;;;;;9.03;6.90;;;8.80;1.00;;;;;;5052663;28;20201;-59
2022/04/24 05:25:39;;;;;;;8.93;6.90;;;8.80;1.00;;;;;;5071291;28;20260;-59
2022/04/24 05:28:07;;;;;;;7.40;6.60;;;8.90;1.00;;;;;;5062291;28;20195;-59
2022/04/24 05:30:34;;;;;;;11.40;7.00;;;9.00;1.00;;;;;;5054593;28;20198;-59
2022/04/24 05:33:01;;;;;;;10.13;8.20;;;9.10;1.00;;;;;;5053701;28;20225;-59
2022/04/24 05:35:28;;;;;;;10.33;7.27;;;9.20;99.90;;;;;;5060654;28;20211;-59
2022/04/24 05:37:55;;;;;;;7.50;6.43;;;9.90;99.90;;;;;;5069481;28;20218;-59
2022/04/24 05:40:22;;;;;;;6.73;6.03;;;11.50;1.00;;;;;;5070518;28;20304;-59
2022/04/24 05:42:54;;;;;;;8.27;5.80;;;13.30;1.00;;;;;;5052647;28;20202;-59
2022/04/24 05:45:24;;;;;;;8.50;6.03;;;14.50;1.00;;;;;;5071813;28;20219;-59
2022/04/24 05:47:56;;;;;;;10.70;6.33;;;14.90;1.00;;;;;;5071800;28;20259;-59
2022/04/24 05:50:24;;;;;;;10.03;6.33;;;14.70;1.00;;;;;;5071612;28;20194;-59
2022/04/24 05:52:55;;;;;;;8.00;6.10;;;15.00;1.00;;;;;;5052597;28;20195;-59
2022/04/24 05:55:23;;;;;;;7.90;6.07;;;14.80;1.00;;;;;;5066446;28;20769;-59
2022/04/24 05:57:51;;;;;;;6.73;5.50;;;15.30;1.00;;;;;;5054469;28;20203;-58
2022/04/24 06:00:19;;;;;;;5.73;5.13;;;15.50;1.00;;;;;;5068139;28;20200;-59
2022/04/24 06:02:52;;;;;;;5.93;5.03;;;15.10;1.00;;;;;;5069266;28;20214;-59
2022/04/24 06:05:19;;;;;;;7.13;5.03;;;15.90;1.00;;;;;;5070256;28;20222;-59
2022/04/24 06:07:46;;;;;;;6.07;5.03;;;15.70;1.00;;;;;;5045201;28;20612;-59
2022/04/24 06:10:13;;;;;;;7.30;4.67;;;16.60;1.00;;;;;;5051291;28;20252;-58
2022/04/24 06:12:51;;;;;;;5.50;4.10;;;17.10;99.90;;;;;;5066868;28;20198;-59
2022/04/24 06:15:21;;;;;;;5.83;4.70;;;17.00;99.90;;;;;;5051568;28;20203;-59
2022/04/24 06:17:50;;;;;;;6.37;4.67;;;15.80;99.90;;;;;;5073427;28;20194;-58
2022/04/24 06:20:17;;;;;;;5.20;4.60;;;16.40;99.90;;;;;;5068793;28;20192;-58
2022/04/24 06:22:46;;;;;;;5.00;4.53;;;17.00;99.90;;;;;;5068841;28;20195;-59
2022/04/24 06:25:18;;;;;;;6.63;4.87;;;17.10;99.90;;;;;;5049736;28;20639;-59
2022/04/24 06:27:46;;;;;;;7.75;5.22;;;17.40;99.90;;;;;;5052053;28;20241;-59
2022/04/24 06:30:14;;;;;;;6.68;5.13;;;17.40;99.90;;;;;;5050009;28;20189;-59
2022/04/24 06:32:47;;;;;;;9.07;5.30;;;17.20;99.90;;;;;;5067936;28;20252;-59
2022/04/24 06:35:16;;;;;;;5.10;4.60;;;18.60;99.90;;;;;;5070368;28;20287;-60
2022/04/24 06:37:45;;;;;;;7.28;5.03;;;18.80;99.90;;;;;;5068653;28;20199;-60
2022/04/24 06:40:14;;;;;;;6.30;5.10;;;18.10;99.90;;;;;;5070391;28;20242;-60
2022/04/24 06:42:56;;;;;;;6.03;4.97;;;18.40;99.90;;;;;;5069131;28;20190;-60
2022/04/24 06:45:26;;;;;;;8.98;5.20;;;18.40;99.90;;;;;;5067608;28;20261;-60
2022/04/24 06:47:57;;;;;;;7.35;5.32;;;18.40;99.90;;;;;;5067448;28;20639;-60
2022/04/24 06:50:26;;;;;;;5.90;5.25;;;19.00;99.90;;;;;;5068662;28;20199;-57
2022/04/24 06:53:07;;;;;;;5.95;5.32;;;21.10;99.90;;;;;;5069741;28;20277;-59
2022/04/24 06:55:37;;;;;;;7.88;5.43;;;21.80;99.90;;;;;;5070919;28;20248;-58
2022/04/24 06:58:05;;;;;;;8.07;5.30;;;21.80;99.90;;;;;;5050036;28;20191;-58
2022/04/24 07:00:36;;;;;;;7.85;5.25;;;22.30;99.90;;;;;;5050863;28;22026;-60
2022/04/24 07:03:29;;;;;;;8.45;5.53;;;21.80;99.90;;;;;;5052619;28;20195;-59
2022/04/24 07:05:57;;;;;;;7.57;5.40;;;20.90;99.90;;;;;;5052530;28;20214;-59
2022/04/24 07:08:26;;;;;;;5.32;4.82;;;20.60;99.90;;;;;;5070033;28;20195;-59
2022/04/24 07:10:54;;;;;;;8.13;5.20;;;21.10;99.90;;;;;;5070535;28;20666;-59
2022/04/24 07:13:21;;;;;;;5.90;5.30;;;20.60;99.90;;;;;;5068425;28;20545;-59
2022/04/24 07:15:48;;;;;;;5.82;5.22;;;21.90;99.90;;;;;;5070924;28;20623;-59
2022/04/24 07:18:15;;;;;;;5.63;5.07;;;22.10;99.90;;;;;;5070165;28;20297;-59
2022/04/24 07:20:42;;;;;;;7.05;5.15;;;23.30;99.90;;;;;;5070561;28;20205;-59
2022/04/24 07:23:11;;;;;;;7.10;5.40;;;23.00;99.90;;;;;;5033993;28;20640;-59
2022/04/24 07:25:46;;;;;;;6.78;5.32;;;23.30;99.90;;;;;;5067522;28;20226;-59
2022/04/24 07:28:19;;;;;;;6.03;5.38;;;22.90;99.90;;;;;;5069729;28;20194;-59
2022/04/24 07:30:46;;;;;;;8.25;5.65;;;22.20;99.90;;;;;;5068981;28;20587;-59
2022/04/24 07:33:13;;;;;;;7.55;5.78;;;21.40;99.90;;;;;;5051579;28;20186;-59
2022/04/24 07:35:42;;;;;;;8.95;5.80;;;21.50;99.90;;;;;;5069083;28;20253;-59
2022/04/24 07:38:09;;;;;;;6.93;5.07;;;20.70;99.90;;;;;;5049746;28;20222;-60
2022/04/24 07:40:37;;;;;;;7.38;5.70;;;22.60;99.90;;;;;;5070428;28;20623;-58
2022/04/24 07:43:07;;;;;;;6.07;5.43;;;24.10;99.90;;;;;;5051033;28;20203;-59
2022/04/24 07:45:36;;;;;;;8.13;6.28;;;21.90;99.90;;;;;;5071376;28;20466;-58
2022/04/24 07:48:05;;;;;;;9.02;6.10;;;22.60;99.90;;;;;;5069074;28;20195;-58
2022/04/24 07:50:38;;;;;;;7.90;6.18;;;21.60;99.90;;;;;;5066758;28;20187;-58
2022/04/24 07:53:06;;;;;;;6.70;5.47;;;22.50;99.90;;;;;;5066867;28;20442;-58
2022/04/24 07:55:34;;;;;;;9.35;6.60;;;23.90;99.90;;;;;;5067293;28;20206;-60
2022/04/24 07:58:01;;;;;;;8.60;6.05;;;22.70;99.90;;;;;;5069124;28;20724;-58
2022/04/24 08:00:30;;;;;;;7.40;6.50;;;23.40;99.90;;;;;;5064964;28;20234;-58
2022/04/24 08:03:02;;;;;;;7.13;6.07;;;23.00;99.90;;;;;;5069422;28;20277;-59
2022/04/24 08:05:32;;;;;;;9.10;6.70;;;25.00;99.90;;;;;;5066460;28;20206;-59
2022/04/24 08:08:01;;;;;;;7.00;6.32;;;24.30;99.90;;;;;;5064848;28;20203;-59
2022/04/24 08:10:34;;;;;;;7.45;6.72;;;23.70;99.90;;;;;;5049514;28;20207;-59
2022/04/24 08:13:04;;;;;;;8.07;6.40;;;24.30;99.90;;;;;;5068667;28;20208;-59
2022/04/24 08:15:35;;;;;;;7.82;6.63;;;25.00;99.90;;;;;;5068151;28;20271;-59
2022/04/24 08:18:04;;;;;;;7.35;6.38;;;26.10;99.90;;;;;;5067148;28;20199;-59
2022/04/24 08:20:34;;;;;;;8.75;6.88;;;26.90;99.90;;;;;;5049950;28;20199;-59
2022/04/24 08:23:03;;;;;;;7.05;6.35;;;27.60;99.90;;;;;;5067914;28;20745;-59
2022/04/24 08:25:34;;;;;;;6.90;6.28;;;26.80;99.90;;;;;;5066646;28;20615;-59
2022/04/24 08:28:08;;;;;;;6.65;5.93;;;26.20;99.90;;;;;;5061901;28;20214;-59
2022/04/24 08:30:40;;;;;;;8.32;6.82;;;26.40;99.90;;;;;;5068719;28;20711;-59
2022/04/24 08:33:08;;;;;;;7.10;6.40;;;26.20;99.90;;;;;;5042736;28;20197;-59
2022/04/24 08:35:39;;;;;;;6.55;5.85;;;26.60;99.90;;;;;;5064604;28;20609;-59
2022/04/24 08:38:08;;;;;;;7.05;6.15;;;27.50;99.90;;;;;;5026654;28;20222;-59
2022/04/24 08:40:35;;;;;;;6.38;5.78;;;29.70;99.90;;;;;;5042270;28;20238;-59
2022/04/24 08:43:03;;;;;;;7.07;5.95;;;28.60;99.90;;;;;;5041937;28;20328;-59
2022/04/24 08:45:31;;;;;;;8.05;6.85;;;27.00;99.90;;;;;;5068155;28;20786;-59
2022/04/24 08:47:58;;;;;;;7.95;6.43;;;25.00;99.90;;;;;;5060637;28;20234;-59
2022/04/24 08:50:28;;;;;;;7.50;6.28;;;26.10;99.90;;;;;;5066655;28;20203;-59
2022/04/24 08:52:57;;;;;;;6.57;5.85;;;25.80;99.90;;;;;;5068453;28;20225;-59
2022/04/24 08:55:28;;;;;;;11.07;5.80;;;27.80;99.90;;;;;;5064837;28;22378;-58
2022/04/24 08:57:56;;;;;;;9.90;6.38;;;28.10;99.90;;;;;;5060147;28;20195;-58
2022/04/24 09:00:25;;;;;;;9.52;6.68;;;27.80;99.90;;;;;;5066794;28;20848;-58
2022/04/24 09:02:53;;;;;;;7.30;6.40;;;27.20;99.90;;;;;;5051207;28;20649;-58
2022/04/24 09:05:21;;;;;;;6.85;6.15;;;26.80;99.90;;;;;;5067953;28;20199;-58
2022/04/24 09:07:52;;;;;;;11.00;6.45;;;26.50;99.90;;;;;;5069410;28;20309;-59
2022/04/24 09:10:55;;;;;;;7.22;6.32;;;24.60;99.90;;;;;;5067656;28;20270;-58
2022/04/24 09:16:38;;;;;;;7.25;6.65;;;24.00;99.90;;;;;;5064765;28;20252;-59
2022/04/24 09:19:22;;;;;;;8.82;6.50;;;23.80;99.90;;;;;;5044016;28;20346;-58
2022/04/24 09:22:00;;;;;;;8.40;7.57;;;23.90;99.90;;;;;;5063110;28;20198;-59
2022/04/24 09:24:39;;;;;;;7.90;6.40;;;23.30;99.90;;;;;;5063708;28;20210;-59
2022/04/24 09:27:07;;;;;;;7.45;6.68;;;24.20;99.90;;;;;;5060153;28;20300;-59
2022/04/24 09:29:34;;;;;;;6.88;6.18;;;25.30;99.90;;;;;;5069461;28;20195;-59
2022/04/24 09:32:01;;;;;;;8.02;6.82;;;26.90;99.90;;;;;;5048988;28;20191;-57
2022/04/24 09:34:33;;;;;;;7.75;6.82;;;27.40;99.90;;;;;;5064772;28;20236;-59
2022/04/24 09:37:02;;;;;;;9.45;6.43;;;26.30;99.90;;;;;;5064380;28;20195;-59
2022/04/24 09:39:32;;;;;;;7.82;6.80;;;26.60;99.90;;;;;;5068605;28;20218;-59
2022/04/24 09:42:10;;;;;;;7.55;6.50;;;27.70;99.90;;;;;;5067697;28;20238;-57
2022/04/24 09:44:39;;;;;;;9.30;6.82;;;29.20;99.90;;;;;;5068301;28;20249;-60
2022/04/24 09:47:27;;;;;;;7.50;6.60;;;27.80;99.90;;;;;;5062763;28;20692;-58
2022/04/24 09:49:54;;;;;;;7.03;6.43;;;27.00;99.90;;;;;;5062836;28;20579;-58
2022/04/24 09:52:23;;;;;;;8.20;7.38;;;26.50;99.90;;;;;;5049428;28;20203;-58
2022/04/24 09:54:53;;;;;;;7.20;6.50;;;25.80;99.90;;;;;;5062969;28;20195;-58
2022/04/24 09:57:22;;;;;;;10.38;6.55;;;25.60;99.90;;;;;;5064351;28;20677;-58
2022/04/24 09:59:53;;;;;;;9.32;7.05;;;26.40;99.90;;;;;;5068861;28;20199;-58
2022/04/24 10:02:20;;;;;;;11.60;7.55;;;24.40;99.90;;;;;;5070693;28;20699;-58
2022/04/24 10:04:48;;;;;;;7.20;6.50;;;24.20;99.90;;;;;;5067101;28;20191;-59
2022/04/24 10:07:17;;;;;;;9.15;7.00;;;24.40;99.90;;;;;;5063275;28;20325;-59
2022/04/24 10:09:46;;;;;;;10.23;8.23;;;25.00;99.90;;;;;;5069330;28;20256;-58
2022/04/24 10:12:19;;;;;;;7.97;6.72;;;23.90;99.90;;;;;;5041199;28;20272;-59
2022/04/24 10:14:57;;;;;;;8.57;7.18;;;24.30;99.90;;;;;;5073382;28;20195;-59
2022/04/24 10:17:32;;;;;;;7.38;6.63;;;24.40;99.90;;;;;;5073460;28;20199;-59
2022/04/24 10:20:43;;;;;;;7.68;6.72;;;25.80;99.90;;;;;;5070064;28;20222;-59
2022/04/24 10:23:11;;;;;;;8.05;7.05;;;25.80;99.90;;;;;;5051509;28;20549;-58
2022/04/24 10:25:41;;;;;;;8.32;7.38;;;25.60;99.90;;;;;;5070125;28;20732;-59
2022/04/24 10:28:18;;;;;;;8.00;7.25;;;24.20;99.90;;;;;;5068947;28;20198;-59
2022/04/24 10:30:57;;;;;;;7.93;7.13;;;23.50;99.90;;;;;;5068618;28;20851;-59
2022/04/24 10:33:39;;;;;;;8.77;7.97;;;23.90;99.90;;;;;;5068478;28;20207;-59
2022/04/24 10:36:13;;;;;;;8.45;7.10;;;23.70;99.90;;;;;;5068495;28;20240;-59
2022/04/24 10:39:00;;;;;;;9.15;7.05;;;24.40;99.90;;;;;;5068927;28;20211;-59
2022/04/24 10:42:06;;;;;;;6.88;5.95;;;24.60;99.90;;;;;;5068887;28;20280;-59
2022/04/24 10:44:33;;;;;;;8.45;6.78;;;25.20;99.90;;;;;;5070410;28;20574;-59
2022/04/24 10:47:10;;;;;;;9.35;6.50;;;25.80;99.90;;;;;;5070817;28;20272;-58
2022/04/24 10:49:37;;;;;;;8.07;6.60;;;24.20;99.90;;;;;;5070855;28;20195;-59
2022/04/24 10:52:06;;;;;;;7.07;6.38;;;24.60;99.90;;;;;;5066548;28;20194;-59
2022/04/24 10:54:35;;;;;;;9.95;7.00;;;25.70;99.90;;;;;;5069181;28;20282;-59
2022/04/24 10:57:24;;;;;;;9.05;5.93;;;25.20;99.90;;;;;;5068565;28;21245;-58
2022/04/24 10:59:52;;;;;;;7.28;6.55;;;24.90;99.90;;;;;;5064746;28;20236;-59
2022/04/24 11:02:30;;;;;;;6.75;6.05;;;24.40;99.90;;;;;;5069097;28;20202;-60
2022/04/24 11:05:06;;;;;;;6.60;6.00;;;24.60;99.90;;;;;;5064786;28;20198;-58
2022/04/24 11:07:34;;;;;;;8.75;6.30;;;23.90;99.90;;;;;;5066946;28;20214;-59
2022/04/24 11:10:09;;;;;;;7.70;6.55;;;24.10;99.90;;;;;;5066596;28;20285;-58
2022/04/24 11:12:38;;;;;;;8.18;6.30;;;23.40;99.90;;;;;;5064812;28;20258;-59
2022/04/24 11:15:08;;;;;;;7.97;6.97;;;22.60;99.90;;;;;;5065021;28;20199;-59
2022/04/24 11:17:36;;;;;;;8.93;6.28;;;23.70;99.90;;;;;;5066010;28;20229;-62
2022/04/24 11:20:09;;;;;;;6.60;6.00;;;21.70;99.90;;;;;;5045167;28;20225;-59
2022/04/24 11:22:55;;;;;;;7.20;6.50;;;21.90;99.90;;;;;;5067175;28;20222;-59
2022/04/24 11:25:27;;;;;;;6.70;6.10;;;24.20;99.90;;;;;;5069452;28;20194;-58
2022/04/24 11:27:58;;;;;;;6.70;6.00;;;24.60;99.90;;;;;;5069345;28;20954;-59
2022/04/24 11:30:37;;;;;;;7.00;6.10;;;23.50;99.90;;;;;;5066682;28;20270;-59
2022/04/24 11:33:06;;;;;;;6.65;6.03;;;23.10;99.90;;;;;;5067450;28;20239;-59
2022/04/24 11:35:36;;;;;;;6.75;6.15;;;22.50;99.90;;;;;;5066790;28;20660;-58
2022/04/24 11:38:04;;;;;;;7.15;6.10;;;23.10;99.90;;;;;;5064712;28;20239;-58
2022/04/24 11:40:33;;;;;;;6.93;6.22;;;23.70;99.90;;;;;;5030649;28;20227;-59
2022/04/24 11:43:18;;;;;;;8.35;5.97;;;23.20;99.90;;;;;;5062207;28;20247;-58
2022/04/24 11:51:33;;;;;;;7.38;5.78;;;21.50;99.90;;;;;;5065327;28;20195;-59
2022/04/24 11:54:10;;;;;;;6.65;5.95;;;21.60;99.90;;;;;;5049635;28;20237;-59
2022/04/24 11:56:37;;;;;;;8.43;6.38;;;22.40;99.90;;;;;;5059909;28;20190;-58
2022/04/24 11:59:16;;;;;;;7.45;5.82;;;22.50;99.90;;;;;;5044742;28;20198;-58
2022/04/24 12:01:45;;;;;;;9.77;6.13;;;22.20;99.90;;;;;;5060114;28;20191;-59
2022/04/24 12:04:20;;;;;;;9.05;6.55;;;21.80;99.90;;;;;;5061398;28;20447;-58
2022/04/24 12:06:48;;;;;;;6.60;5.78;;;22.40;99.90;;;;;;5060423;28;20842;-59
2022/04/24 12:09:22;;;;;;;6.60;6.03;;;23.30;99.90;;;;;;5048102;28;20230;-57
2022/04/24 12:12:09;;;;;;;10.52;6.75;;;24.20;99.90;;;;;;5061369;28;20214;-57
2022/04/24 12:14:37;;;;;;;8.73;7.13;;;21.50;99.90;;;;;;5056100;28;20214;-57
2022/04/24 12:17:07;;;;;;;6.90;6.25;;;20.20;99.90;;;;;;5062335;28;20226;-59
2022/04/24 12:19:35;;;;;;;10.13;6.68;;;20.40;99.90;;;;;;5048112;28;21195;-58
2022/04/24 12:22:11;;;;;;;6.80;6.13;;;21.00;99.90;;;;;;5056372;28;20192;-59
2022/04/24 12:24:43;;;;;;;6.72;5.85;;;21.70;99.90;;;;;;5046939;28;20199;-62
2022/04/24 12:27:16;;;;;;;7.47;6.72;;;22.10;99.90;;;;;;5042015;28;20231;-59
2022/04/24 12:29:45;;;;;;;8.98;6.60;;;20.80;99.90;;;;;;5058743;28;20195;-59
2022/04/24 12:32:14;;;;;;;9.07;6.45;;;20.70;99.90;;;;;;5057615;28;20577;-60
2022/04/24 12:34:44;;;;;;;9.20;6.38;;;20.70;99.90;;;;;;5030452;28;20631;-58
2022/04/24 12:37:12;;;;;;;6.80;6.15;;;20.50;99.90;;;;;;5064043;28;20196;-58
2022/04/24 12:39:52;;;;;;;10.02;6.25;;;20.20;99.90;;;;;;5041406;28;20222;-58
2022/04/24 12:42:20;;;;;;;7.70;6.63;;;20.50;99.90;;;;;;5058346;28;20274;-58
2022/04/24 12:44:48;;;;;;;9.75;6.65;;;20.20;99.90;;;;;;5044669;28;20195;-59
2022/04/24 12:47:15;;;;;;;7.82;6.13;;;20.00;99.90;;;;;;5057871;28;20261;-59
2022/04/24 12:49:44;;;;;;;10.10;6.53;;;20.20;99.90;;;;;;5025797;28;20236;-58
2022/04/24 12:52:12;;;;;;;6.75;6.15;;;20.20;99.90;;;;;;5039363;28;20194;-58
2022/04/24 12:54:39;;;;;;;6.90;5.97;;;20.40;99.90;;;;;;5048792;28;20199;-58
2022/04/24 12:57:08;;;;;;;8.93;6.25;;;19.80;99.90;;;;;;5057229;28;20231;-58
2022/04/24 12:59:36;;;;;;;12.02;6.80;;;19.50;99.90;;;;;;5063661;28;20203;-58
2022/04/24 13:02:05;;;;;;;11.48;8.20;;;19.30;99.90;;;;;;5059533;28;20292;-59
2022/04/24 13:04:34;;;;;;;8.50;7.28;;;19.60;99.90;;;;;;5045300;28;20218;-59
2022/04/24 13:07:03;;;;;;;11.45;9.00;;;19.50;99.90;;;;;;5044261;28;21662;-59
2022/04/24 13:09:30;;;;;;;8.80;6.97;;;19.70;99.90;;;;;;5061505;28;20179;-59
2022/04/24 13:11:57;;;;;;;9.48;6.45;;;20.00;99.90;;;;;;5062505;28;20187;-60
2022/04/24 13:14:25;;;;;;;7.85;5.55;;;20.00;99.90;;;;;;5058685;28;20781;-59